createdAt,value
2023-05-08T00:01:32.065Z,100.00
2023-05-08T00:03:59.878Z,100.00
2023-05-08T00:06:27.987Z,100.00
2023-05-08T00:08:57.711Z,100.00
2023-05-08T00:11:24.567Z,100.00
2023-05-08T00:13:51.931Z,100.00
2023-05-08T00:16:19.236Z,100.00
2023-05-08T00:18:47.570Z,100.00
2023-05-08T00:21:15.215Z,100.00
2023-05-08T00:23:42.928Z,100.00
2023-05-08T00:26:10.925Z,100.00
2023-05-08T00:28:38.699Z,100.00
2023-05-08T00:31:06.205Z,100.00
2023-05-08T00:33:34.125Z,100.00
2023-05-08T00:36:06.577Z,100.00
2023-05-08T00:38:35.454Z,100.00
2023-05-08T00:41:03.742Z,100.00
2023-05-08T00:43:31.286Z,100.00
2023-05-08T00:46:01.593Z,100.00
2023-05-08T00:48:34.694Z,100.00
2023-05-08T00:51:04.894Z,100.00
2023-05-08T00:53:36.671Z,100.00
2023-05-08T00:56:05.309Z,100.00
2023-05-08T00:58:34.158Z,100.00
2023-05-08T01:01:02.134Z,100.00
2023-05-08T01:03:30.016Z,100.00
2023-05-08T01:05:58.012Z,100.00
2023-05-08T01:08:26.306Z,100.00
2023-05-08T01:11:32.782Z,100.00
2023-05-08T01:14:06.219Z,100.00
2023-05-08T01:17:00.357Z,100.00
2023-05-08T01:20:01.636Z,100.00
2023-05-08T01:22:31.774Z,100.00
2023-05-08T01:25:24.518Z,100.00
2023-05-08T01:28:19.963Z,100.00
2023-05-08T01:31:13.300Z,100.00
2023-05-08T01:33:52.474Z,100.00
2023-05-08T01:36:40.288Z,100.00
2023-05-08T01:39:27.741Z,100.00
2023-05-08T01:42:05.704Z,100.00
2023-05-08T01:44:37.998Z,100.00
2023-05-08T01:47:11.354Z,100.00
2023-05-08T01:49:43.238Z,100.00
2023-05-08T01:52:19.578Z,100.00
2023-05-08T01:54:59.911Z,100.00
2023-05-08T01:57:30.754Z,100.00
2023-05-08T02:00:01.765Z,100.00
2023-05-08T02:02:32.531Z,100.00
2023-05-08T02:05:03.792Z,100.00
2023-05-08T02:07:32.366Z,100.00
2023-05-08T02:10:01.921Z,100.00
2023-05-08T02:12:30.913Z,100.00
2023-05-08T02:15:00.903Z,100.00
2023-05-08T02:17:31.271Z,100.00
2023-05-08T02:20:01.516Z,100.00
2023-05-08T02:22:31.281Z,100.00
2023-05-08T02:24:59.317Z,100.00
2023-05-08T02:27:29.321Z,100.00
2023-05-08T02:29:58.210Z,100.00
2023-05-08T02:32:27.874Z,100.00
2023-05-08T02:35:02.993Z,100.00
2023-05-08T02:37:32.800Z,100.00
2023-05-08T02:40:04.190Z,100.00
2023-05-08T02:42:31.390Z,100.00
2023-05-08T02:44:58.365Z,100.00
2023-05-08T02:47:34.765Z,100.00
2023-05-08T02:50:12.678Z,100.00
2023-05-08T02:52:49.734Z,100.00
2023-05-08T02:55:35.074Z,100.00
2023-05-08T02:58:08.398Z,100.00
2023-05-08T03:00:53.237Z,100.00
2023-05-08T03:03:25.125Z,100.00
2023-05-08T03:05:55.345Z,100.00
2023-05-08T03:08:28.547Z,100.00
2023-05-08T03:10:59.567Z,100.00
2023-05-08T03:13:29.902Z,100.00
2023-05-08T03:16:00.547Z,100.00
2023-05-08T03:18:33.887Z,100.00
2023-05-08T03:21:01.866Z,100.00
2023-05-08T03:23:30.837Z,100.00
2023-05-08T03:25:59.594Z,100.00
2023-05-08T03:28:28.612Z,100.00
2023-05-08T03:30:57.366Z,100.00
2023-05-08T03:33:25.778Z,100.00
2023-05-08T03:35:54.602Z,100.00
2023-05-08T03:38:22.534Z,100.00
2023-05-08T03:40:50.017Z,100.00
2023-05-08T03:43:19.152Z,100.00
2023-05-08T03:45:46.519Z,100.00
2023-05-08T03:48:14.913Z,100.00
2023-05-08T03:50:42.041Z,100.00
2023-05-08T03:53:08.891Z,100.00
2023-05-08T03:55:37.022Z,100.00
2023-05-08T03:58:14.225Z,100.00
2023-05-08T04:00:46.918Z,100.00
2023-05-08T04:03:35.712Z,100.00
2023-05-08T04:06:28.724Z,100.00
2023-05-08T04:09:14.660Z,100.00
2023-05-08T04:11:57.151Z,100.00
2023-05-08T04:14:32.630Z,100.00
2023-05-08T04:17:04.135Z,100.00
2023-05-08T04:19:36.554Z,100.00
2023-05-08T04:22:08.994Z,100.00
2023-05-08T04:24:42.371Z,100.00
2023-05-08T04:27:10.944Z,100.00
2023-05-08T04:29:38.229Z,100.00
2023-05-08T04:32:06.733Z,100.00
2023-05-08T04:34:33.872Z,99.59
2023-05-08T04:37:01.106Z,98.46
2023-05-08T04:39:28.098Z,98.77
2023-05-08T04:41:55.897Z,97.60
2023-05-08T04:44:22.840Z,96.97
2023-05-08T04:46:50.374Z,94.76
2023-05-08T04:49:17.144Z,93.87
2023-05-08T04:51:43.843Z,93.53
2023-05-08T04:54:10.538Z,90.84
2023-05-08T04:56:37.787Z,88.06
2023-05-08T04:59:04.766Z,86.70
2023-05-08T05:01:31.658Z,85.42
2023-05-08T05:03:58.684Z,85.64
2023-05-08T05:06:25.458Z,83.76
2023-05-08T05:08:52.625Z,77.63
2023-05-08T05:11:19.357Z,74.79
2023-05-08T05:13:46.155Z,73.77
2023-05-08T05:16:13.607Z,74.53
2023-05-08T05:18:40.286Z,74.36
2023-05-08T05:21:07.059Z,71.71
2023-05-08T05:23:34.147Z,72.63
2023-05-08T05:26:00.915Z,71.33
2023-05-08T05:28:27.792Z,70.18
2023-05-08T05:30:54.648Z,69.13
2023-05-08T05:33:21.430Z,68.59
2023-05-08T05:35:48.355Z,67.74
2023-05-08T05:38:15.252Z,66.35
2023-05-08T05:40:42.136Z,66.64
2023-05-08T05:43:08.898Z,64.14
2023-05-08T05:45:36.460Z,65.53
2023-05-08T05:48:03.439Z,66.73
2023-05-08T05:50:30.729Z,65.79
2023-05-08T05:52:57.718Z,65.67
2023-05-08T05:55:24.439Z,67.91
2023-05-08T05:57:51.821Z,67.73
2023-05-08T06:00:22.238Z,65.52
2023-05-08T06:02:49.365Z,63.57
2023-05-08T06:05:16.544Z,63.29
2023-05-08T06:07:43.405Z,61.68
2023-05-08T06:10:11.136Z,60.89
2023-05-08T06:12:37.830Z,60.75
2023-05-08T06:15:05.571Z,59.48
2023-05-08T06:17:32.283Z,59.64
2023-05-08T06:19:59.070Z,61.64
2023-05-08T06:22:26.087Z,60.49
2023-05-08T06:24:57.475Z,58.94
2023-05-08T06:27:25.396Z,58.69
2023-05-08T06:29:53.433Z,60.16
2023-05-08T06:32:21.221Z,60.12
2023-05-08T06:34:48.656Z,60.71
2023-05-08T06:37:15.715Z,60.27
2023-05-08T06:39:42.556Z,58.18
2023-05-08T06:42:09.770Z,56.58
2023-05-08T06:44:36.664Z,55.77
2023-05-08T06:47:03.618Z,55.22
2023-05-08T06:49:30.727Z,54.63
2023-05-08T06:51:58.108Z,51.64
2023-05-08T06:54:25.203Z,51.38
2023-05-08T06:56:54.321Z,50.64
2023-05-08T06:59:23.597Z,50.82
2023-05-08T07:01:51.401Z,49.42
2023-05-08T07:04:18.742Z,48.72
2023-05-08T07:06:45.396Z,47.99
2023-05-08T07:09:13.245Z,49.02
2023-05-08T07:11:40.486Z,48.14
2023-05-08T07:14:07.337Z,46.81
2023-05-08T07:16:34.919Z,44.64
2023-05-08T07:19:02.205Z,44.89
2023-05-08T07:21:30.020Z,43.79
2023-05-08T07:23:56.928Z,45.04
2023-05-08T07:26:24.457Z,44.18
2023-05-08T07:28:52.009Z,42.47
2023-05-08T07:31:18.772Z,41.26
2023-05-08T07:33:47.065Z,39.76
2023-05-08T07:36:14.465Z,39.49
2023-05-08T07:38:41.178Z,39.47
2023-05-08T07:41:08.676Z,37.63
2023-05-08T07:43:36.352Z,38.07
2023-05-08T07:46:03.466Z,37.56
2023-05-08T07:48:30.464Z,38.44
2023-05-08T07:50:57.965Z,38.88
2023-05-08T07:53:24.992Z,37.39
2023-05-08T07:55:52.018Z,35.93
2023-05-08T07:58:18.794Z,35.55
2023-05-08T08:00:45.502Z,35.57
2023-05-08T08:03:12.500Z,33.05
2023-05-08T08:05:39.961Z,33.05
2023-05-08T08:08:06.703Z,33.13
2023-05-08T08:10:34.314Z,33.40
2023-05-08T08:13:02.040Z,33.67
2023-05-08T08:15:29.480Z,33.52
2023-05-08T08:17:56.580Z,33.46
2023-05-08T08:20:23.460Z,33.92
2023-05-08T08:22:50.288Z,33.58
2023-05-08T08:25:17.981Z,33.35
2023-05-08T08:27:44.960Z,33.30
2023-05-08T08:30:16.665Z,32.34
2023-05-08T08:32:44.322Z,32.47
2023-05-08T08:35:11.524Z,32.77
2023-05-08T08:37:38.703Z,32.87
2023-05-08T08:40:06.717Z,32.66
2023-05-08T08:42:34.153Z,31.83
2023-05-08T08:45:02.094Z,31.48
2023-05-08T08:47:41.931Z,31.01
2023-05-08T08:50:14.180Z,31.97
2023-05-08T08:53:02.220Z,32.13
2023-05-08T08:55:31.802Z,32.46
2023-05-08T08:58:26.534Z,32.92
2023-05-08T09:00:56.614Z,33.54
2023-05-08T09:03:23.936Z,32.19
2023-05-08T09:05:51.581Z,31.89
2023-05-08T09:08:19.885Z,32.13
2023-05-08T09:10:47.938Z,32.30
2023-05-08T09:13:17.322Z,32.34
2023-05-08T09:15:46.034Z,32.71
2023-05-08T09:18:13.484Z,32.90
2023-05-08T09:20:42.005Z,33.01
2023-05-08T09:23:09.380Z,33.55
2023-05-08T09:25:43.412Z,33.67
2023-05-08T09:28:21.592Z,34.37
2023-05-08T09:30:52.375Z,34.16
2023-05-08T09:33:21.110Z,35.69
2023-05-08T09:35:49.257Z,34.89
2023-05-08T09:38:36.442Z,37.00
2023-05-08T09:41:11.648Z,37.97
2023-05-08T09:43:39.497Z,36.61
2023-05-08T09:46:30.190Z,34.72
2023-05-08T09:48:59.615Z,34.14
2023-05-08T09:51:29.024Z,35.32
2023-05-08T09:53:59.236Z,33.66
2023-05-08T09:56:40.087Z,33.23
2023-05-08T09:59:24.190Z,33.21
2023-05-08T10:01:51.708Z,35.85
2023-05-08T10:04:18.755Z,33.99
2023-05-08T10:06:57.211Z,33.69
2023-05-08T10:09:26.127Z,33.26
2023-05-08T10:12:01.102Z,35.48
2023-05-08T10:14:28.946Z,36.28
2023-05-08T10:16:58.236Z,37.71
2023-05-08T10:19:29.097Z,37.17
2023-05-08T10:21:58.431Z,38.39
2023-05-08T10:24:34.084Z,38.34
2023-05-08T10:27:41.555Z,40.07
2023-05-08T10:30:11.399Z,41.74
2023-05-08T10:32:43.590Z,43.26
2023-05-08T10:35:12.319Z,42.13
2023-05-08T10:37:42.375Z,41.92
2023-05-08T10:40:11.257Z,41.43
2023-05-08T10:42:39.442Z,41.89
2023-05-08T10:45:07.713Z,42.37
2023-05-08T10:47:57.255Z,44.44
2023-05-08T10:50:26.988Z,44.12
2023-05-08T10:53:14.084Z,43.31
2023-05-08T10:55:47.772Z,42.86
2023-05-08T10:58:29.074Z,43.08
2023-05-08T11:01:07.576Z,44.02
2023-05-08T11:03:46.396Z,41.15
2023-05-08T11:06:13.912Z,41.72
2023-05-08T11:08:46.977Z,41.22
2023-05-08T11:11:30.951Z,42.99
2023-05-08T11:14:16.538Z,40.14
2023-05-08T11:17:00.048Z,41.31
2023-05-08T11:19:28.908Z,41.23
2023-05-08T11:22:11.532Z,41.31
2023-05-08T11:25:01.840Z,42.77
2023-05-08T11:27:37.768Z,41.92
2023-05-08T11:30:40.144Z,41.57
2023-05-08T11:33:07.931Z,42.73
2023-05-08T11:35:49.384Z,43.78
2023-05-08T11:38:17.624Z,44.81
2023-05-08T11:41:01.094Z,44.72
2023-05-08T11:43:37.392Z,44.83
2023-05-08T11:46:14.219Z,44.40
2023-05-08T11:48:44.912Z,45.11
2023-05-08T11:51:15.638Z,45.63
2023-05-08T11:53:45.335Z,45.61
2023-05-08T11:56:18.411Z,44.79
2023-05-08T11:58:46.023Z,46.80
2023-05-08T12:01:20.195Z,44.68
2023-05-08T12:03:47.830Z,44.99
2023-05-08T12:06:15.790Z,44.94
2023-05-08T12:08:44.203Z,45.49
2023-05-08T12:11:11.104Z,45.76
2023-05-08T12:13:38.573Z,45.86
2023-05-08T12:16:05.930Z,46.66
2023-05-08T12:18:33.556Z,47.40
2023-05-08T12:21:02.021Z,48.82
2023-05-08T12:23:30.171Z,50.30
2023-05-08T12:26:01.493Z,51.41
2023-05-08T12:28:29.440Z,51.67
2023-05-08T12:30:56.893Z,52.36
2023-05-08T12:33:27.278Z,52.80
2023-05-08T12:35:54.948Z,53.60
2023-05-08T12:38:25.665Z,54.75
2023-05-08T12:40:56.370Z,55.36
2023-05-08T12:43:39.139Z,55.45
2023-05-08T12:46:06.319Z,57.96
2023-05-08T12:48:33.653Z,60.35
2023-05-08T12:51:05.066Z,64.98
2023-05-08T12:53:33.937Z,63.57
2023-05-08T12:56:04.843Z,63.35
2023-05-08T12:58:34.102Z,63.54
2023-05-08T13:01:12.135Z,69.33
2023-05-08T13:03:39.806Z,66.34
2023-05-08T13:06:06.690Z,66.17
2023-05-08T13:08:38.470Z,64.30
2023-05-08T13:11:06.689Z,64.64
2023-05-08T13:13:35.493Z,64.44
2023-05-08T13:16:07.241Z,65.58
2023-05-08T13:18:37.849Z,65.73
2023-05-08T13:21:05.044Z,68.55
2023-05-08T13:23:32.566Z,72.27
2023-05-08T13:26:01.318Z,74.13
2023-05-08T13:28:28.123Z,74.21
2023-05-08T13:30:55.444Z,76.12
2023-05-08T13:33:24.909Z,77.75
2023-05-08T13:35:52.224Z,78.73
2023-05-08T13:38:20.479Z,81.37
2023-05-08T13:40:48.121Z,82.55
2023-05-08T13:43:15.726Z,82.31
2023-05-08T13:45:43.917Z,83.47
2023-05-08T13:48:11.601Z,87.22
2023-05-08T13:50:38.946Z,87.12
2023-05-08T13:53:06.449Z,85.64
2023-05-08T13:55:33.635Z,83.10
2023-05-08T13:58:00.760Z,83.01
2023-05-08T14:00:30.340Z,79.29
2023-05-08T14:02:57.535Z,85.41
2023-05-08T14:05:24.683Z,83.34
2023-05-08T14:07:52.258Z,84.25
2023-05-08T14:10:19.954Z,82.34
2023-05-08T14:12:47.457Z,82.35
2023-05-08T14:15:15.273Z,82.25
2023-05-08T14:17:42.920Z,82.41
2023-05-08T14:20:11.962Z,84.38
2023-05-08T14:22:40.317Z,78.80
2023-05-08T14:25:09.611Z,78.55
2023-05-08T14:27:40.962Z,81.57
2023-05-08T14:30:16.696Z,80.41
2023-05-08T14:32:45.783Z,80.95
2023-05-08T14:35:16.314Z,76.18
2023-05-08T14:37:43.511Z,77.48
2023-05-08T14:40:10.591Z,79.16
2023-05-08T14:42:38.658Z,78.89
2023-05-08T14:45:06.484Z,78.20
2023-05-08T14:47:34.443Z,78.69
2023-05-08T14:50:01.718Z,77.31
2023-05-08T14:52:29.233Z,79.34
2023-05-08T14:54:56.663Z,79.31
2023-05-08T14:57:24.285Z,81.40
2023-05-08T14:59:55.237Z,80.17
2023-05-08T15:02:24.321Z,80.54
2023-05-08T15:04:51.697Z,80.87
2023-05-08T15:07:18.594Z,82.26
2023-05-08T15:09:45.485Z,82.81
2023-05-08T15:12:12.340Z,84.94
2023-05-08T15:14:39.062Z,85.23
2023-05-08T15:17:05.681Z,88.59
2023-05-08T15:19:32.538Z,85.88
2023-05-08T15:21:59.332Z,86.02
2023-05-08T15:24:26.119Z,87.37
2023-05-08T15:26:52.790Z,88.48
2023-05-08T15:29:19.427Z,86.71
2023-05-08T15:31:46.447Z,86.88
2023-05-08T15:34:13.164Z,86.33
2023-05-08T15:36:39.856Z,87.00
2023-05-08T15:39:06.976Z,85.70
2023-05-08T15:41:34.494Z,86.61
2023-05-08T15:44:01.373Z,88.47
2023-05-08T15:46:28.284Z,87.58
2023-05-08T15:48:55.255Z,88.20
2023-05-08T15:51:22.055Z,90.20
2023-05-08T15:53:48.890Z,90.29
2023-05-08T15:56:16.407Z,90.19
2023-05-08T15:58:43.262Z,90.22
2023-05-08T16:01:10.071Z,93.79
2023-05-08T16:03:37.106Z,93.85
2023-05-08T16:06:04.564Z,94.12
2023-05-08T16:08:31.468Z,94.38
2023-05-08T16:11:01.997Z,93.57
2023-05-08T16:13:29.383Z,95.29
2023-05-08T16:16:03.240Z,96.08
2023-05-08T16:18:31.620Z,96.63
2023-05-08T16:20:59.519Z,98.19
2023-05-08T16:23:26.817Z,99.41
2023-05-08T16:25:54.379Z,99.35
2023-05-08T16:28:21.738Z,99.75
2023-05-08T16:30:49.326Z,100.00
2023-05-08T16:33:16.912Z,100.00
2023-05-08T16:35:44.398Z,100.00
2023-05-08T16:38:11.656Z,100.00
2023-05-08T16:40:39.427Z,100.00
2023-05-08T16:43:08.637Z,100.00
2023-05-08T16:45:36.339Z,100.00
2023-05-08T16:48:04.345Z,100.00
2023-05-08T16:50:32.197Z,100.00
2023-05-08T16:52:59.375Z,100.00
2023-05-08T16:55:26.609Z,100.00
2023-05-08T16:57:54.134Z,100.00
2023-05-08T17:00:21.602Z,100.00
2023-05-08T17:02:52.595Z,100.00
2023-05-08T17:05:19.964Z,100.00
2023-05-08T17:07:46.818Z,100.00
2023-05-08T17:10:14.941Z,100.00
2023-05-08T17:12:41.881Z,100.00
2023-05-08T17:15:19.091Z,100.00
2023-05-08T17:17:47.884Z,100.00
2023-05-08T17:20:15.172Z,100.00
2023-05-08T17:22:42.305Z,100.00
2023-05-08T17:25:09.228Z,100.00
2023-05-08T17:27:37.029Z,100.00
2023-05-08T17:30:04.246Z,100.00
2023-05-08T17:32:31.469Z,100.00
2023-05-08T17:34:59.080Z,100.00
2023-05-08T17:37:25.881Z,100.00
2023-05-08T17:39:52.838Z,100.00
2023-05-08T17:42:19.766Z,100.00
2023-05-08T17:44:46.747Z,100.00
2023-05-08T17:47:14.145Z,100.00
2023-05-08T17:49:41.259Z,100.00
2023-05-08T17:52:10.315Z,100.00
2023-05-08T17:54:40.167Z,100.00
2023-05-08T17:57:07.084Z,100.00
2023-05-08T17:59:33.825Z,100.00
2023-05-08T18:02:00.844Z,100.00
2023-05-08T18:04:27.718Z,100.00
2023-05-08T18:06:54.725Z,100.00
2023-05-08T18:09:21.565Z,100.00
2023-05-08T18:11:48.333Z,100.00
2023-05-08T18:14:15.151Z,100.00
2023-05-08T18:16:41.999Z,100.00
2023-05-08T18:19:08.855Z,100.00
2023-05-08T18:21:35.814Z,100.00
2023-05-08T18:24:02.501Z,100.00
2023-05-08T18:26:29.593Z,100.00
2023-05-08T18:28:56.370Z,100.00
2023-05-08T18:31:23.179Z,100.00
2023-05-08T18:33:50.064Z,100.00
2023-05-08T18:36:17.006Z,100.00
2023-05-08T18:38:44.101Z,100.00
2023-05-08T18:41:11.063Z,100.00
2023-05-08T18:43:37.802Z,100.00
2023-05-08T18:46:14.011Z,100.00
2023-05-08T18:48:42.060Z,100.00
2023-05-08T18:51:09.142Z,100.00
2023-05-08T18:53:41.271Z,100.00
2023-05-08T18:56:08.605Z,100.00
2023-05-08T18:58:36.906Z,100.00
2023-05-08T19:01:06.337Z,100.00
2023-05-08T19:03:35.711Z,100.00
2023-05-08T19:06:03.906Z,100.00
2023-05-08T19:08:31.635Z,100.00
2023-05-08T19:11:00.481Z,100.00
2023-05-08T19:13:28.611Z,100.00
2023-05-08T19:15:56.589Z,100.00
2023-05-08T19:18:23.866Z,100.00
2023-05-08T19:21:08.069Z,100.00
2023-05-08T19:23:39.073Z,100.00
2023-05-08T19:26:12.313Z,100.00
2023-05-08T19:28:53.081Z,100.00
2023-05-08T19:31:20.899Z,100.00
2023-05-08T19:33:49.048Z,100.00
2023-05-08T19:36:16.616Z,100.00
2023-05-08T19:38:43.800Z,100.00
2023-05-08T19:41:15.331Z,100.00
2023-05-08T19:43:48.405Z,100.00
2023-05-08T19:46:16.502Z,100.00
2023-05-08T19:48:45.205Z,100.00
2023-05-08T19:51:17.920Z,100.00
2023-05-08T19:53:52.114Z,100.00
2023-05-08T19:56:23.368Z,100.00
2023-05-08T19:58:51.848Z,100.00
2023-05-08T20:01:22.949Z,100.00
2023-05-08T20:03:51.154Z,100.00
2023-05-08T20:06:19.344Z,100.00
2023-05-08T20:08:47.055Z,100.00
2023-05-08T20:11:14.641Z,100.00
2023-05-08T20:13:42.070Z,100.00
2023-05-08T20:16:10.571Z,100.00
2023-05-08T20:18:38.750Z,100.00
2023-05-08T20:21:09.696Z,100.00
2023-05-08T20:23:38.471Z,100.00
2023-05-08T20:26:08.048Z,100.00
2023-05-08T20:28:36.339Z,100.00
2023-05-08T20:31:04.548Z,100.00
2023-05-08T20:33:33.038Z,100.00
2023-05-08T20:36:02.436Z,100.00
2023-05-08T20:38:30.297Z,100.00
2023-05-08T20:41:00.927Z,100.00
2023-05-08T20:43:29.940Z,100.00
2023-05-08T20:46:04.099Z,100.00
2023-05-08T20:48:31.886Z,100.00
2023-05-08T20:51:00.492Z,100.00
2023-05-08T20:53:31.175Z,100.00
2023-05-08T20:56:06.975Z,100.00
2023-05-08T20:58:38.165Z,100.00
2023-05-08T21:01:07.176Z,100.00
2023-05-08T21:03:35.587Z,100.00
2023-05-08T21:06:03.622Z,100.00
2023-05-08T21:08:31.746Z,100.00
2023-05-08T21:11:02.732Z,100.00
2023-05-08T21:13:31.069Z,100.00
2023-05-08T21:16:02.630Z,100.00
2023-05-08T21:18:46.827Z,100.00
2023-05-08T21:21:18.630Z,100.00
2023-05-08T21:23:54.763Z,100.00
2023-05-08T21:26:24.478Z,100.00
2023-05-08T21:28:54.525Z,100.00
2023-05-08T21:31:23.266Z,100.00
2023-05-08T21:33:52.672Z,100.00
2023-05-08T21:36:20.402Z,100.00
2023-05-08T21:38:48.531Z,100.00
2023-05-08T21:41:16.691Z,100.00
2023-05-08T21:43:44.499Z,100.00
2023-05-08T21:46:12.277Z,100.00
2023-05-08T21:48:40.302Z,100.00
2023-05-08T21:51:07.883Z,100.00
2023-05-08T21:53:35.331Z,100.00
2023-05-08T21:56:02.954Z,100.00
2023-05-08T21:58:30.217Z,100.00
2023-05-08T22:00:58.676Z,100.00
2023-05-08T22:03:26.608Z,100.00
2023-05-08T22:05:55.616Z,100.00
2023-05-08T22:08:23.252Z,100.00
2023-05-08T22:10:51.217Z,100.00
2023-05-08T22:13:18.354Z,100.00
2023-05-08T22:15:45.424Z,100.00
2023-05-08T22:18:13.902Z,100.00
2023-05-08T22:20:41.103Z,100.00
2023-05-08T22:23:08.612Z,100.00
2023-05-08T22:25:36.256Z,100.00
2023-05-08T22:28:03.753Z,100.00
2023-05-08T22:30:31.029Z,100.00
2023-05-08T22:32:59.827Z,100.00
2023-05-08T22:35:28.055Z,100.00
2023-05-08T22:37:58.999Z,100.00
2023-05-08T22:40:26.899Z,100.00
2023-05-08T22:42:56.232Z,100.00
2023-05-08T22:45:24.617Z,100.00
2023-05-08T22:47:51.848Z,100.00
2023-05-08T22:50:19.170Z,100.00
2023-05-08T22:52:46.169Z,100.00
2023-05-08T22:55:14.428Z,100.00
2023-05-08T22:57:42.263Z,100.00
2023-05-08T23:00:09.961Z,100.00
2023-05-08T23:02:37.491Z,100.00
2023-05-08T23:05:05.059Z,100.00
2023-05-08T23:07:32.202Z,100.00
2023-05-08T23:09:59.653Z,100.00
2023-05-08T23:12:30.933Z,100.00
2023-05-08T23:14:58.475Z,100.00
2023-05-08T23:17:25.624Z,100.00
2023-05-08T23:19:52.461Z,100.00
2023-05-08T23:22:19.347Z,100.00
2023-05-08T23:24:46.176Z,100.00
2023-05-08T23:27:12.958Z,100.00
2023-05-08T23:29:39.623Z,100.00
2023-05-08T23:32:06.417Z,100.00
2023-05-08T23:34:33.405Z,100.00
2023-05-08T23:37:02.633Z,100.00
2023-05-08T23:39:29.381Z,100.00
2023-05-08T23:41:56.042Z,100.00
2023-05-08T23:44:22.705Z,100.00
2023-05-08T23:46:49.598Z,100.00
2023-05-08T23:49:16.413Z,100.00
2023-05-08T23:51:43.129Z,100.00
2023-05-08T23:54:09.836Z,100.00
2023-05-08T23:56:36.629Z,100.00
2023-05-08T23:59:03.573Z,100.00
